Time;durP1;ratioP1;P1;durP2;ratioP2;P2;SDS_P1;SDS_P2;PMS_P1;PMS_P2;Temp;Humidity;BMP_temperature;BMP_pressure;BME280_temperature;BME280_humidity;BME280_pressure;Samples;Min_cycle;Max_cycle;Signal;HPM_P1;HPM_P2
2022/01/23 00:02:27;;;;;;;11.17;9.30;;;;;;;7.65;81.31;102768.13;5078261;28;20426;-73
2022/01/23 00:04:52;;;;;;;10.30;9.20;;;;;;;7.83;81.63;102762.16;5078661;28;20452;-74
2022/01/23 00:07:19;;;;;;;9.90;8.73;;;;;;;7.35;81.94;102770.84;5078541;28;20419;-75
2022/01/23 00:09:44;;;;;;;11.07;8.70;;;;;;;7.87;80.45;102772.75;5078333;28;20463;-74
2022/01/23 00:12:14;;;;;;;9.77;8.53;;;;;;;7.68;80.64;102765.69;5078809;28;20425;-76
2022/01/23 00:17:25;;;;;;;9.90;8.97;;;;;;;7.88;80.26;102769.38;5078524;28;20662;-74
2022/01/23 00:19:53;;;;;;;9.40;8.50;;;;;;;7.63;81.33;102772.38;5078164;28;20430;-75
2022/01/23 00:22:21;;;;;;;10.50;8.63;;;;;;;8.00;80.66;102769.13;5078115;28;20458;-74
2022/01/23 00:32:46;;;;;;;9.37;8.40;;;;;;;7.39;81.79;102775.38;5090753;28;20481;-74
2022/01/23 00:35:11;;;;;;;13.03;8.60;;;;;;;7.24;83.12;102770.22;5098123;28;20458;-74
2022/01/23 00:37:37;;;;;;;9.57;8.57;;;;;;;7.20;83.62;102772.59;5098905;28;20297;-75
2022/01/23 00:40:04;;;;;;;11.30;8.80;;;;;;;7.35;82.26;102776.03;5098158;28;20192;-74
2022/01/23 00:42:30;;;;;;;15.23;9.30;;;;;;;7.67;81.68;102774.31;5098193;28;20436;-76
2022/01/23 00:45:05;;;;;;;10.73;8.63;;;;;;;7.91;80.80;102779.94;5098431;28;20377;-76
2022/01/23 00:47:32;;;;;;;9.27;8.20;;;;;;;7.90;80.50;102772.94;5097921;28;20168;-75
2022/01/23 00:49:57;;;;;;;10.07;8.40;;;;;;;7.85;81.12;102770.94;5080335;28;20418;-76
2022/01/23 00:52:22;;;;;;;9.50;8.50;;;;;;;7.91;80.64;102773.84;5097890;28;20440;-75
2022/01/23 00:54:48;;;;;;;10.23;7.83;;;;;;;7.92;81.04;102770.44;5098027;28;20486;-76
2022/01/23 00:57:13;;;;;;;11.83;8.87;;;;;;;8.06;79.93;102778.94;5098406;28;20206;-72
2022/01/23 00:59:38;;;;;;;8.73;7.30;;;;;;;7.93;80.96;102774.81;5098021;28;20173;-72
2022/01/23 01:02:04;;;;;;;13.20;9.00;;;;;;;8.08;80.78;102772.16;5098085;28;20402;-72
2022/01/23 01:04:29;;;;;;;9.90;8.03;;;;;;;7.86;80.98;102776.19;5080740;28;20263;-73
2022/01/23 01:06:55;;;;;;;11.10;8.60;;;;;;;7.98;81.15;102777.66;5098940;28;20172;-74
2022/01/23 01:09:20;;;;;;;10.57;8.30;;;;;;;7.84;80.51;102771.72;5101941;28;20440;-72
2022/01/23 01:17:05;;;;;;;6.90;6.30;;;;;;;12.30;70.63;102759.31;5081209;28;20408;-61
2022/01/23 01:30:54;;;;;;;7.90;5.90;;;;;;;8.45;78.33;102799.16;5081189;28;20506;-73
2022/01/23 01:36:02;;;;;;;6.40;5.70;;;;;;;8.25;79.85;102801.59;5081146;28;20401;-74
2022/01/23 01:38:27;;;;;;;7.70;6.90;;;;;;;8.34;79.50;102790.81;5081069;28;20394;-73
2022/01/23 01:40:53;;;;;;;11.30;6.50;;;;;;;8.13;79.31;102800.94;5080923;28;20429;-74
2022/01/23 01:43:18;;;;;;;9.70;6.37;;;;;;;8.19;80.44;102799.56;5080745;28;20237;-75
2022/01/23 01:45:44;;;;;;;7.03;6.33;;;;;;;8.46;79.23;102801.88;5081447;28;20248;-73
2022/01/23 01:48:10;;;;;;;6.90;5.73;;;;;;;8.39;79.95;102800.63;5080941;28;20173;-74
2022/01/23 01:50:42;;;;;;;7.50;6.00;;;;;;;7.87;81.36;102800.44;5080797;28;20611;-73
2022/01/23 01:53:10;;;;;;;6.47;5.77;;;;;;;8.30;80.19;102801.84;5082737;28;20692;-75
2022/01/23 01:55:41;;;;;;;6.70;5.97;;;;;;;7.64;82.94;102804.41;5080534;28;20421;-74
2022/01/23 01:58:13;;;;;;;9.53;8.53;;;;;;;8.06;81.06;102798.03;5080855;28;20386;-74
2022/01/23 02:08:28;;;;;;;5.83;5.27;;;;;;;7.96;81.35;102793.16;5080495;28;20176;-74
2022/01/23 02:11:03;;;;;;;6.30;5.37;;;;;;;8.22;80.32;102783.25;5047524;28;20389;-75
2022/01/23 02:51:07;;;;;;;10.73;8.20;;;;;;;8.52;79.83;102776.16;5079843;28;20813;-74
2022/01/23 02:53:51;;;;;;;15.43;8.70;;;;;;;8.47;80.01;102782.84;5079415;28;20455;-74
2022/01/23 02:56:31;;;;;;;9.30;7.57;;;;;;;8.24;80.94;102784.22;5079650;28;20417;-75
2022/01/23 02:58:59;;;;;;;10.40;8.40;;;;;;;8.31;80.88;102785.41;5079710;28;20385;-74
2022/01/23 03:01:29;;;;;;;11.43;8.17;;;;;;;8.40;79.89;102784.22;5079435;28;20843;-74
2022/01/23 03:04:08;;;;;;;9.73;8.10;;;;;;;8.38;80.70;102785.81;5079327;28;21117;-74
2022/01/23 03:14:20;;;;;;;9.70;7.40;;;;;;;8.39;80.57;102800.63;5081362;28;20414;-75
2022/01/23 03:25:16;;;;;;;9.23;8.23;;;;;;;8.55;80.48;102793.63;5064452;28;20439;-75
2022/01/23 03:30:35;;;;;;;10.27;8.70;;;;;;;8.48;80.86;102796.72;5078699;28;20808;-74
2022/01/23 03:33:00;;;;;;;9.50;8.50;;;;;;;8.68;79.49;102784.75;5078886;28;20401;-75
2022/01/23 03:35:25;;;;;;;9.37;7.67;;;;;;;7.97;82.03;102792.34;5078762;28;20439;-75
2022/01/23 03:37:51;;;;;;;9.33;8.30;;;;;;;8.34;81.45;102781.28;5078793;28;20164;-74
2022/01/23 03:40:16;;;;;;;11.53;8.77;;;;;;;8.15;81.61;102789.81;5078904;28;20558;-74
2022/01/23 03:42:43;;;;;;;10.40;8.20;;;;;;;8.40;80.34;102783.31;5079229;28;20413;-75
2022/01/23 03:49:30;;;;;;;9.60;8.10;;;;;;;8.26;81.32;102793.88;5078639;28;20517;-74
2022/01/23 03:50:39;;;;;;;10.67;8.00;;;;;;;8.47;80.76;102794.94;5078312;28;20698;-74
2022/01/23 03:53:07;;;;;;;11.40;8.00;;;;;;;7.80;83.38;102788.84;5078216;28;20463;-74
2022/01/23 03:55:33;;;;;;;9.10;7.40;;;;;;;8.26;81.99;102788.69;5078781;28;20386;-74
2022/01/23 03:57:59;;;;;;;8.90;8.00;;;;;;;8.19;82.20;102777.91;5078281;28;20430;-74
2022/01/23 04:00:24;;;;;;;10.80;8.00;;;;;;;8.18;81.93;102778.72;5078847;28;20425;-73
2022/01/23 04:02:50;;;;;;;9.20;8.00;;;;;;;8.59;80.03;102774.75;5078312;28;20222;-73
2022/01/23 04:05:16;;;;;;;8.50;6.77;;;;;;;8.32;80.76;102771.63;5078297;28;20527;-75
2022/01/23 04:07:41;;;;;;;8.17;7.03;;;;;;;8.24;81.68;102781.59;5079121;28;20172;-74
2022/01/23 04:10:08;;;;;;;8.80;7.53;;;;;;;8.59;80.06;102779.97;5078351;28;20165;-74
2022/01/23 04:12:47;;;;;;;8.60;7.40;;;;;;;8.02;81.80;102787.38;5078399;28;20263;-75
2022/01/23 04:18:44;;;;;;;8.47;7.53;;;;;;;8.48;80.92;102797.63;5078104;28;20444;-75
2022/01/23 04:21:18;;;;;;;8.60;6.97;;;;;;;8.38;81.12;102804.03;5077894;28;20532;-74
2022/01/23 04:34:49;;;;;;;8.13;7.10;;;;;;;8.49;80.88;102812.41;5077857;28;20393;-74
2022/01/23 04:45:33;;;;;;;8.33;7.30;;;;;;;8.83;80.51;102808.91;5082194;28;20393;-74
2022/01/23 05:01:21;;;;;;;10.87;9.27;;;;;;;8.53;81.13;102808.25;5081839;28;20491;-74
2022/01/23 05:06:36;;;;;;;12.90;9.50;;;;;;;8.89;80.52;102818.72;5081856;28;20476;-75
2022/01/23 05:09:02;;;;;;;14.40;9.67;;;;;;;8.79;80.63;102822.59;5081714;28;20381;-74
2022/01/23 05:11:27;;;;;;;13.33;9.13;;;;;;;8.89;80.59;102829.13;5081602;28;20403;-74
2022/01/23 05:13:53;;;;;;;12.30;9.03;;;;;;;8.41;82.07;102831.88;5081861;28;20165;-74
2022/01/23 05:16:19;;;;;;;11.40;9.03;;;;;;;8.32;82.18;102828.78;5081482;28;20504;-74
2022/01/23 05:18:44;;;;;;;10.23;8.60;;;;;;;8.79;81.07;102829.50;5081357;28;20173;-73
2022/01/23 05:23:44;;;;;;;9.83;7.60;;;;;;;8.74;81.07;102832.75;5081080;28;20440;-74
2022/01/23 05:26:09;;;;;;;11.63;8.40;;;;;;;8.40;81.93;102830.09;5081336;28;20451;-73
2022/01/23 05:28:34;;;;;;;11.10;8.60;;;;;;;8.84;80.51;102833.25;5081518;28;20165;-75
2022/01/23 05:30:59;;;;;;;11.43;9.20;;;;;;;8.75;80.39;102842.38;5081215;28;20169;-73
2022/01/23 05:33:25;;;;;;;9.43;7.77;;;;;;;8.47;81.56;102837.44;5081068;28;20180;-73
2022/01/23 05:35:50;;;;;;;9.50;7.40;;;;;;;8.61;81.14;102840.75;5081364;28;20512;-73
2022/01/23 05:38:15;;;;;;;9.17;7.50;;;;;;;9.15;79.22;102842.56;5081061;28;20177;-73
2022/01/23 05:40:42;;;;;;;10.90;8.30;;;;;;;8.72;81.23;102847.38;5080927;28;20208;-73
2022/01/23 05:43:08;;;;;;;9.80;7.73;;;;;;;8.96;80.83;102841.66;5081273;28;20161;-73
2022/01/23 05:45:34;;;;;;;9.27;7.07;;;;;;;8.42;82.58;102842.34;5080906;28;20406;-74
2022/01/23 05:48:00;;;;;;;9.60;7.40;;;;;;;9.19;80.26;102845.41;5081014;28;20173;-73
2022/01/23 05:50:25;;;;;;;11.70;8.50;;;;;;;8.71;81.18;102856.03;5064040;28;20465;-74
2022/01/23 05:52:50;;;;;;;7.80;6.53;;;;;;;8.67;81.83;102848.84;5080351;28;20504;-75
2022/01/23 05:55:16;;;;;;;10.57;7.20;;;;;;;8.85;80.96;102846.31;5081119;28;20185;-74
2022/01/23 05:57:41;;;;;;;10.57;7.00;;;;;;;8.61;82.21;102848.56;5081057;28;20223;-74
2022/01/23 06:00:07;;;;;;;9.83;8.00;;;;;;;8.63;81.88;102844.31;5080665;28;20197;-75
2022/01/23 06:02:32;;;;;;;12.43;7.53;;;;;;;9.26;79.22;102849.19;5080595;28;20203;-75
2022/01/23 06:04:58;;;;;;;10.83;6.83;;;;;;;8.81;81.23;102851.25;5081009;28;20415;-75
2022/01/23 06:07:23;;;;;;;10.80;8.17;;;;;;;9.05;80.08;102864.63;5080596;28;20183;-75
2022/01/23 06:09:48;;;;;;;19.03;8.20;;;;;;;9.12;80.05;102863.22;5080483;28;20227;-75
2022/01/23 06:12:13;;;;;;;12.70;8.43;;;;;;;9.16;80.02;102859.94;5080854;28;20165;-74
2022/01/23 06:14:39;;;;;;;16.27;8.83;;;;;;;8.89;80.66;102865.56;5080266;28;20190;-74
2022/01/23 06:17:04;;;;;;;13.73;8.80;;;;;;;8.84;80.82;102859.25;5080819;28;20484;-73
2022/01/23 06:19:29;;;;;;;13.00;8.93;;;;;;;8.92;80.19;102860.53;5082913;28;20230;-75
2022/01/23 06:21:55;;;;;;;14.93;8.30;;;;;;;8.73;80.50;102864.78;5082798;28;20266;-73
2022/01/23 06:24:25;;;;;;;12.63;9.23;;;;;;;9.03;80.38;102861.94;5064492;28;20184;-74
2022/01/23 06:26:53;;;;;;;14.53;9.23;;;;;;;9.05;80.41;102865.53;5081526;28;20176;-73
2022/01/23 06:29:19;;;;;;;14.40;9.17;;;;;;;8.83;80.72;102866.13;5063058;28;20397;-74
2022/01/23 06:31:46;;;;;;;14.23;10.83;;;;;;;9.22;79.68;102863.75;5080007;28;20458;-74
2022/01/23 06:34:11;;;;;;;15.47;10.33;;;;;;;8.47;82.47;102865.13;5080280;28;20234;-75
2022/01/23 06:36:37;;;;;;;16.93;10.60;;;;;;;8.71;81.37;102871.63;5080002;28;20526;-75
2022/01/23 06:39:08;;;;;;;16.00;11.00;;;;;;;8.89;80.72;102870.75;5062901;28;20557;-74
2022/01/23 06:41:34;;;;;;;19.27;10.80;;;;;;;8.82;81.61;102872.19;5080518;28;20542;-74
2022/01/23 06:43:59;;;;;;;19.30;10.53;;;;;;;8.63;81.28;102872.91;5079738;28;20440;-75
2022/01/23 06:46:25;;;;;;;16.63;10.80;;;;;;;8.99;80.96;102865.22;5079845;28;20247;-74
2022/01/23 06:48:50;;;;;;;15.13;10.33;;;;;;;8.84;80.70;102864.44;5080209;28;20165;-74
2022/01/23 06:51:15;;;;;;;22.00;13.17;;;;;;;9.06;80.21;102864.69;5079771;28;20181;-75
2022/01/23 06:53:41;;;;;;;15.30;9.80;;;;;;;9.16;80.84;102865.16;5079407;28;20225;-74
2022/01/23 06:56:06;;;;;;;18.53;11.07;;;;;;;8.93;80.43;102873.59;5080265;28;20165;-74
2022/01/23 06:58:31;;;;;;;16.60;10.30;;;;;;;8.79;81.22;102874.59;5079525;28;20188;-75
2022/01/23 07:00:57;;;;;;;18.47;11.50;;;;;;;9.03;80.91;102874.06;5079337;28;20215;-75
2022/01/23 07:03:22;;;;;;;14.10;10.10;;;;;;;9.05;80.43;102875.94;5080020;28;20542;-74
2022/01/23 07:05:47;;;;;;;16.67;10.50;;;;;;;9.06;80.87;102882.91;5078534;28;20183;-75
2022/01/23 07:08:12;;;;;;;16.03;10.73;;;;;;;8.80;81.23;102879.00;5079320;28;20175;-74
2022/01/23 07:10:38;;;;;;;17.33;11.43;;;;;;;8.73;81.80;102888.19;5079812;28;20230;-74
2022/01/23 07:13:03;;;;;;;15.50;10.97;;;;;;;9.16;80.16;102897.28;5061726;28;20562;-75
2022/01/23 07:15:28;;;;;;;13.47;9.60;;;;;;;9.05;81.01;102896.75;5061842;28;20204;-74
2022/01/23 07:17:54;;;;;;;15.30;11.10;;;;;;;8.84;81.25;102903.47;5079676;28;20169;-74
2022/01/23 07:20:19;;;;;;;16.80;10.60;;;;;;;8.89;81.25;102902.88;5079136;28;20208;-74
2022/01/23 07:22:44;;;;;;;19.73;11.70;;;;;;;8.75;80.90;102909.97;5079020;28;20242;-74
2022/01/23 07:25:10;;;;;;;17.70;11.20;;;;;;;8.99;81.30;102914.66;5079456;28;20248;-74
2022/01/23 07:27:52;;;;;;;19.77;11.20;;;;;;;8.78;80.88;102922.22;5078919;28;20175;-74
2022/01/23 07:30:27;;;;;;;14.23;10.67;;;;;;;8.98;80.13;102919.78;5063756;28;20173;-74
2022/01/23 07:32:53;;;;;;;16.93;11.10;;;;;;;8.83;80.99;102927.69;5078866;28;20815;-75
2022/01/23 07:35:18;;;;;;;13.83;10.10;;;;;;;8.99;80.32;102934.56;5078835;28;20438;-73
2022/01/23 07:37:44;;;;;;;15.50;9.77;;;;;;;8.72;81.39;102947.91;5078767;28;20173;-75
2022/01/23 07:40:09;;;;;;;14.23;9.80;;;;;;;9.16;79.39;102943.22;5078731;28;20201;-74
2022/01/23 07:42:35;;;;;;;19.73;9.47;;;;;;;8.90;80.71;102945.38;5079110;28;20177;-74
2022/01/23 07:45:02;;;;;;;13.73;9.90;;;;;;;9.14;80.57;102942.28;5078476;28;20183;-74
2022/01/23 07:47:27;;;;;;;12.90;9.17;;;;;;;8.98;81.01;102949.28;5078629;28;20166;-75
2022/01/23 07:49:52;;;;;;;15.50;9.50;;;;;;;8.93;80.28;102951.66;5079135;28;20381;-74
2022/01/23 07:52:18;;;;;;;14.60;10.90;;;;;;;8.62;81.77;102956.03;5078354;28;20494;-73
2022/01/23 07:54:43;;;;;;;14.40;10.00;;;;;;;8.72;81.33;102954.00;5078572;28;20211;-75
2022/01/23 07:57:08;;;;;;;15.53;10.23;;;;;;;8.54;82.71;102953.03;5079071;28;20169;-74
2022/01/23 07:59:37;;;;;;;13.70;9.30;;;;;;;9.13;80.17;102959.56;5078464;28;20188;-75
2022/01/23 08:02:02;;;;;;;13.40;10.00;;;;;;;8.86;80.92;102956.44;5061413;28;20211;-75
2022/01/23 08:04:28;;;;;;;16.10;9.10;;;;;;;9.30;78.82;102957.84;5078931;28;20411;-74
2022/01/23 08:07:08;;;;;;;15.80;9.53;;;;;;;9.47;79.71;102961.31;5078437;28;20497;-74
2022/01/23 08:09:33;;;;;;;13.33;9.20;;;;;;;9.24;79.38;102967.94;5078241;28;20172;-75
2022/01/23 08:11:59;;;;;;;14.50;9.37;;;;;;;9.24;80.22;102961.03;5061030;28;20426;-75
2022/01/23 08:14:24;;;;;;;12.73;9.57;;;;;;;9.46;78.96;102953.41;5060975;28;20161;-73
2022/01/23 08:16:49;;;;;;;14.87;9.97;;;;;;;9.13;80.09;102963.91;5079701;28;20560;-74
2022/01/23 08:19:15;;;;;;;14.83;10.40;;;;;;;9.36;79.48;102963.38;5079577;28;20176;-74
2022/01/23 08:21:40;;;;;;;14.67;10.13;;;;;;;9.55;79.23;102964.28;5079367;28;20223;-74
2022/01/23 08:24:05;;;;;;;13.80;9.43;;;;;;;9.38;79.29;102971.25;5078632;28;20556;-73
2022/01/23 08:26:31;;;;;;;17.07;9.27;;;;;;;9.28;79.80;102980.28;5078212;28;20169;-74
2022/01/23 08:28:56;;;;;;;16.87;10.27;;;;;;;9.53;78.49;102984.16;5078291;28;20173;-74
2022/01/23 08:31:21;;;;;;;18.67;10.57;;;;;;;9.21;80.94;102984.28;5078676;28;20165;-74
2022/01/23 08:33:47;;;;;;;13.73;9.70;;;;;;;9.22;80.00;102985.19;5077952;28;20173;-74
2022/01/23 08:36:12;;;;;;;16.83;10.17;;;;;;;9.47;80.04;102989.94;5078202;28;20203;-74
2022/01/23 08:38:37;;;;;;;15.87;10.00;;;;;;;9.40;79.62;102988.75;5060974;28;20188;-74
2022/01/23 08:43:37;;;;;;;17.00;10.60;;;;;;;9.46;79.51;102995.97;5077942;28;20240;-72
2022/01/23 08:46:02;;;;;;;15.80;10.27;;;;;;;9.32;80.10;102989.16;5078443;28;20482;-74
2022/01/23 08:48:28;;;;;;;19.43;10.87;;;;;;;9.28;79.66;102993.31;5078132;28;20188;-75
2022/01/23 08:50:53;;;;;;;19.13;12.00;;;;;;;9.23;80.19;102997.41;5078018;28;20438;-71
2022/01/23 08:53:18;;;;;;;19.20;10.70;;;;;;;9.27;79.69;102989.81;5082290;28;20228;-71
2022/01/23 08:55:43;;;;;;;19.17;11.07;;;;;;;8.87;81.86;102998.13;5093530;28;20211;-72
2022/01/23 08:58:09;;;;;;;21.57;11.07;;;;;;;8.96;80.92;102989.94;5062086;28;20231;-71
2022/01/23 09:00:34;;;;;;;19.33;11.13;;;;;;;9.34;79.95;102996.22;5063121;28;20200;-71
2022/01/23 09:02:59;;;;;;;17.40;11.20;;;;;;;9.35;80.32;102998.03;5097975;28;20251;-74
2022/01/23 09:05:26;;;;;;;15.90;10.27;;;;;;;9.42;80.05;103000.13;5098105;28;20258;-75
2022/01/23 09:07:52;;;;;;;16.33;10.73;;;;;;;9.43;79.57;102998.38;5097752;28;20457;-75
2022/01/23 09:10:25;;;;;;;22.87;11.33;;;;;;;9.63;78.49;102999.41;5084723;28;20397;-74
2022/01/23 09:13:06;;;;;;;19.17;9.70;;;;;;;9.95;77.59;102998.38;5077718;28;20165;-71
2022/01/23 09:15:32;;;;;;;18.33;11.23;;;;;;;9.60;77.95;103009.69;5077383;28;20681;-76
2022/01/23 09:17:57;;;;;;;12.57;9.60;;;;;;;10.02;77.27;103010.00;5077634;28;20397;-75
2022/01/23 09:20:22;;;;;;;16.37;9.67;;;;;;;9.58;78.22;103016.53;5077466;28;20586;-75
2022/01/23 09:22:47;;;;;;;16.77;9.63;;;;;;;9.85;77.89;103009.19;5077465;28;20177;-75
2022/01/23 09:25:13;;;;;;;16.73;9.90;;;;;;;9.39;78.96;103019.88;5078839;28;20169;-73
2022/01/23 09:27:39;;;;;;;16.13;9.00;;;;;;;10.02;77.12;103017.81;5093527;28;20271;-72
2022/01/23 09:30:16;;;;;;;16.20;10.73;;;;;;;9.50;78.77;103028.25;5101698;28;20546;-71
2022/01/23 09:32:43;;;;;;;14.37;9.50;;;;;;;9.69;78.77;103017.94;5085639;28;20417;-70
2022/01/23 09:35:08;;;;;;;17.73;8.97;;;;;;;9.68;78.11;103020.47;5101319;28;20434;-71
2022/01/23 09:37:34;;;;;;;14.20;9.00;;;;;;;9.68;77.93;103015.28;5101543;28;20476;-72
2022/01/23 09:40:00;;;;;;;15.97;10.53;;;;;;;9.88;77.79;103021.47;5101258;28;20522;-73
2022/01/23 09:42:35;;;;;;;16.20;10.17;;;;;;;9.85;77.60;103029.13;5101205;28;20168;-76
2022/01/23 09:45:06;;;;;;;15.23;9.30;;;;;;;9.70;77.84;103024.03;5101025;28;20421;-76
2022/01/23 09:47:32;;;;;;;15.97;9.57;;;;;;;9.46;78.56;103015.88;5100215;28;20453;-73
2022/01/23 09:50:00;;;;;;;19.13;9.90;;;;;;;9.44;78.51;103024.53;5084042;28;20435;-72
2022/01/23 09:52:29;;;;;;;13.73;9.10;;;;;;;9.41;78.76;103026.06;5100907;28;20479;-73
2022/01/23 09:55:01;;;;;;;17.93;10.03;;;;;;;9.82;78.17;103031.59;5100842;28;20790;-74
2022/01/23 09:57:30;;;;;;;15.50;10.90;;;;;;;9.49;78.29;103039.50;5084364;28;20418;-74
2022/01/23 09:59:57;;;;;;;18.50;11.00;;;;;;;9.59;78.30;103036.53;5101083;28;20478;-73
2022/01/23 10:02:25;;;;;;;18.93;11.97;;;;;;;9.77;77.86;103037.47;5081183;28;20403;-75
2022/01/23 10:04:51;;;;;;;17.93;11.03;;;;;;;9.61;78.44;103038.38;5083128;28;20382;-72
2022/01/23 10:07:17;;;;;;;19.63;11.83;;;;;;;9.74;77.79;103039.00;5080804;28;20426;-73
2022/01/23 10:09:43;;;;;;;19.50;10.97;;;;;;;9.63;78.29;103045.41;5081097;28;20381;-73
2022/01/23 10:12:09;;;;;;;15.47;10.10;;;;;;;9.81;77.47;103042.81;5080464;28;20416;-73
2022/01/23 10:14:35;;;;;;;17.27;10.93;;;;;;;9.81;78.07;103045.41;5062925;28;20261;-73
2022/01/23 10:17:01;;;;;;;13.27;9.60;;;;;;;9.90;77.28;103045.88;5080830;28;20400;-74
2022/01/23 10:19:26;;;;;;;16.07;9.50;;;;;;;10.34;76.23;103048.88;5080234;28;20770;-73
2022/01/23 10:21:52;;;;;;;12.90;9.40;;;;;;;10.00;76.56;103055.94;5080139;28;20574;-73
2022/01/23 10:24:18;;;;;;;17.27;8.70;;;;;;;10.15;75.95;103047.06;5080646;28;20165;-75
2022/01/23 10:26:52;;;;;;;20.03;9.80;;;;;;;10.28;74.92;103055.59;5080235;28;20399;-74
2022/01/23 10:29:17;;;;;;;16.80;7.60;;;;;;;10.13;75.42;103057.44;5080064;28;20188;-74
2022/01/23 10:32:24;;;;;;;16.07;7.80;;;;;;;10.21;74.84;103065.63;5080287;28;20486;-73
2022/01/23 10:34:55;;;;;;;8.50;7.50;;;;;;;10.05;75.34;103067.50;5079884;28;20246;-71
2022/01/23 10:37:33;;;;;;;15.50;6.97;;;;;;;9.78;76.40;103065.31;5062703;28;20385;-76
2022/01/23 10:40:05;;;;;;;16.40;7.10;;;;;;;10.21;75.36;103065.63;5078818;28;20431;-74
2022/01/23 10:50:44;;;;;;;15.30;6.47;;;;;;;9.94;75.21;103055.63;5079177;28;20433;-74
2022/01/23 10:53:09;;;;;;;9.57;6.00;;;;;;;10.03;75.96;103052.59;5079680;28;20557;-73
2022/01/23 10:55:35;;;;;;;7.93;5.80;;;;;;;10.38;74.59;103054.34;5079668;28;20177;-73
2022/01/23 10:58:06;;;;;;;12.93;6.33;;;;;;;10.24;74.88;103050.13;5079568;28;20160;-73
2022/01/23 11:00:34;;;;;;;7.93;5.90;;;;;;;9.93;75.58;103053.84;5084422;28;20774;-73
2022/01/23 11:03:13;;;;;;;12.27;7.33;;;;;;;10.74;73.25;103046.47;5099497;28;20429;-73
2022/01/23 11:05:39;;;;;;;8.87;6.10;;;;;;;10.52;73.62;103054.09;5099874;28;20391;-73
2022/01/23 11:08:25;;;;;;;8.67;5.67;;;;;;;10.54;73.49;103047.22;5099425;28;20518;-73
2022/01/23 11:10:59;;;;;;;10.37;5.63;;;;;;;10.45;73.30;103048.59;5099825;28;20867;-74
2022/01/23 11:19:44;;;;;;;10.47;5.07;;;;;;;10.65;72.46;103034.69;5018054;28;20432;-79
2022/01/23 11:22:28;;;;;;;7.53;4.93;;;;;;;10.66;72.17;103026.03;5018399;28;20769;-79
2022/01/23 11:25:00;;;;;;;11.10;5.50;;;;;;;10.60;72.62;103029.28;5065956;28;20179;-78
2022/01/23 11:27:31;;;;;;;12.93;5.93;;;;;;;11.09;71.28;103023.66;5099542;28;20426;-79
2022/01/23 11:30:00;;;;;;;6.90;4.87;;;;;;;10.90;71.55;103026.28;5099470;28;20744;-75
2022/01/23 11:32:29;;;;;;;7.57;5.10;;;;;;;11.00;71.58;103024.97;5099200;28;20422;-81
2022/01/23 11:35:05;;;;;;;10.27;4.97;;;;;;;11.14;70.70;103023.00;5099129;28;20462;-76
2022/01/23 11:37:31;;;;;;;6.73;4.80;;;;;;;10.08;74.34;103033.75;5098940;28;20413;-76
2022/01/23 11:40:03;;;;;;;10.00;4.73;;;;;;;10.75;73.18;103022.13;5081872;28;20406;-87
2022/01/23 11:56:31;;;;;;;10.10;5.17;;;;;;;10.88;70.23;103012.25;5099244;28;20835;-77
2022/01/23 11:59:09;;;;;;;6.97;4.60;;;;;;;11.22;70.46;103021.59;5098930;28;20456;-81
2022/01/23 12:01:34;;;;;;;8.20;5.03;;;;;;;11.22;69.84;103017.25;5085055;28;20437;-78
2022/01/23 12:04:09;;;;;;;7.10;4.90;;;;;;;11.30;69.69;103017.59;5078201;28;20407;-76
2022/01/23 12:06:39;;;;;;;7.47;5.07;;;;;;;11.60;69.00;103028.44;5078236;28;20190;-74
2022/01/23 12:09:11;;;;;;;7.10;4.93;;;;;;;11.19;70.33;103031.88;5060791;28;20666;-75
2022/01/23 12:16:52;;;;;;;7.10;4.87;;;;;;;11.33;68.67;103020.34;5079478;28;20492;-81
2022/01/23 12:19:19;;;;;;;4.73;4.10;;;;;;;10.48;71.10;103032.19;5079243;28;20386;-76
2022/01/23 12:21:46;;;;;;;6.40;4.73;;;;;;;11.04;68.88;103026.88;5060761;28;20694;-74
2022/01/23 12:24:15;;;;;;;8.30;5.10;;;;;;;11.08;69.36;103023.59;5077984;28;20385;-77
2022/01/23 12:26:41;;;;;;;9.27;5.70;;;;;;;10.82;70.28;103027.66;5061134;28;20390;-77
2022/01/23 12:29:14;;;;;;;5.87;5.27;;;;;;;10.69;70.94;103024.47;5079142;28;20435;-81
2022/01/23 12:31:40;;;;;;;6.70;5.00;;;;;;;10.83;70.49;103024.22;5080315;28;20429;-75
2022/01/23 12:34:05;;;;;;;5.10;4.60;;;;;;;10.93;70.39;103019.50;5062072;28;20386;-76
2022/01/23 12:36:32;;;;;;;7.27;4.60;;;;;;;10.69;70.37;103023.56;5078317;28;20389;-75
2022/01/23 12:39:07;;;;;;;4.27;3.87;;;;;;;10.86;69.82;103017.41;5077943;28;20259;-76
2022/01/23 12:41:35;;;;;;;10.50;4.27;;;;;;;11.10;69.73;103019.34;5077792;28;20432;-76
2022/01/23 12:44:07;;;;;;;5.50;3.90;;;;;;;11.33;68.44;103009.91;5082747;28;20419;-79
2022/01/23 12:46:48;;;;;;;5.83;3.90;;;;;;;10.98;69.55;103006.63;5095747;28;20881;-75
2022/01/23 12:49:30;;;;;;;8.33;3.63;;;;;;;10.66;70.96;103015.59;5078258;28;20713;-77
2022/01/23 12:52:08;;;;;;;4.67;3.53;;;;;;;10.76;69.67;103010.88;5089345;28;20425;-70
2022/01/23 12:54:47;;;;;;;10.60;3.83;;;;;;;11.27;67.63;103005.31;5098619;28;20429;-68
2022/01/23 12:57:15;;;;;;;4.33;3.70;;;;;;;11.48;67.30;103007.03;5098329;28;20441;-69
2022/01/23 12:59:43;;;;;;;6.83;3.60;;;;;;;11.06;67.42;103010.47;5093979;28;20435;-70
2022/01/23 13:02:16;;;;;;;8.33;3.27;;;;;;;11.13;67.59;103003.81;5060543;28;20478;-76
2022/01/23 13:04:45;;;;;;;6.93;4.47;;;;;;;11.39;66.53;103006.66;5065199;28;20415;-76
2022/01/23 13:07:29;;;;;;;5.37;3.10;;;;;;;11.90;64.53;103001.81;5082121;28;20426;-76
2022/01/23 13:10:02;;;;;;;4.30;2.80;;;;;;;12.66;62.33;102999.53;5081820;28;20677;-79
2022/01/23 13:34:27;;;;;;;4.70;3.73;;;;;;;10.90;67.12;103011.50;5101282;28;20428;-74
2022/01/23 13:37:00;;;;;;;9.30;3.30;;;;;;;11.27;66.29;103013.13;5101464;28;20433;-74
2022/01/23 13:39:29;;;;;;;4.57;3.10;;;;;;;10.93;67.19;103021.19;5101462;28;20410;-73
2022/01/23 13:42:21;;;;;;;3.77;3.20;;;;;;;11.21;67.16;103020.69;5101221;28;20730;-74
2022/01/23 13:53:30;;;;;;;5.50;4.13;;;;;;;10.77;67.11;103019.59;5081416;28;20615;-73
2022/01/23 14:04:29;;;;;;;4.10;2.90;;;;;;;10.47;68.28;103032.13;5080510;28;20419;-76
2022/01/23 14:06:55;;;;;;;3.90;3.60;;;;;;;10.24;68.17;103034.50;5079910;28;20415;-77
2022/01/23 14:09:23;;;;;;;3.40;3.00;;;;;;;10.26;67.71;103031.13;5080653;28;20831;-76
2022/01/23 14:11:49;;;;;;;6.33;3.40;;;;;;;10.34;68.57;103025.41;5081142;28;20169;-78
2022/01/23 14:14:26;;;;;;;3.70;3.37;;;;;;;10.43;67.67;103028.47;5080132;28;20415;-75
2022/01/23 14:16:53;;;;;;;4.53;3.73;;;;;;;10.36;67.74;103031.63;5079641;28;20528;-75
2022/01/23 14:19:21;;;;;;;4.77;3.30;;;;;;;10.01;68.75;103038.59;5080400;28;20522;-76
2022/01/23 14:21:49;;;;;;;3.20;2.90;;;;;;;9.95;68.78;103047.00;5080116;28;20493;-75
2022/01/23 14:24:29;;;;;;;4.67;3.23;;;;;;;10.15;68.01;103040.16;5063055;28;20385;-81
2022/01/23 14:27:06;;;;;;;3.70;3.30;;;;;;;10.14;67.61;103045.31;5080536;28;20532;-77
2022/01/23 14:29:34;;;;;;;6.77;4.23;;;;;;;10.40;67.94;103043.97;5062785;28;20377;-73
2022/01/23 14:32:19;;;;;;;5.03;4.00;;;;;;;10.14;68.01;103042.69;5080007;28;20629;-73
2022/01/23 14:34:45;;;;;;;9.43;5.90;;;;;;;10.12;68.79;103047.84;5080102;28;20743;-76
2022/01/23 14:37:11;;;;;;;4.97;3.70;;;;;;;9.88;69.34;103050.13;5080217;28;20502;-77
2022/01/23 14:39:36;;;;;;;8.00;5.17;;;;;;;9.95;69.02;103055.72;5080202;28;20172;-76
2022/01/23 14:42:13;;;;;;;4.27;2.83;;;;;;;9.74;69.48;103060.75;5062910;28;20204;-75
2022/01/23 14:44:38;;;;;;;5.77;3.20;;;;;;;10.00;68.85;103050.75;5062639;28;20476;-76
2022/01/23 14:47:07;;;;;;;5.23;3.23;;;;;;;9.99;68.33;103061.97;5079865;28;20435;-78
2022/01/23 14:49:33;;;;;;;6.80;3.47;;;;;;;9.56;69.94;103067.63;5079811;28;20504;-75
2022/01/23 14:52:01;;;;;;;5.60;4.00;;;;;;;9.49;69.98;103069.03;5092871;28;20414;-76
2022/01/23 14:54:30;;;;;;;6.73;3.30;;;;;;;9.54;69.90;103066.63;5100249;28;20168;-77
2022/01/23 14:57:04;;;;;;;4.23;3.27;;;;;;;9.73;69.48;103069.38;5099984;28;20393;-73
2022/01/23 14:59:31;;;;;;;5.23;3.60;;;;;;;9.52;70.38;103068.28;5099739;28;20411;-74
2022/01/23 15:01:58;;;;;;;6.50;3.37;;;;;;;9.80;69.07;103072.31;5099870;28;20511;-71
2022/01/23 15:04:23;;;;;;;4.83;3.30;;;;;;;10.05;68.43;103077.94;5099558;28;20423;-74